X  Κλείσε Στοιχεία αεροπορικών μετεωρολογικών δεδομένων METAR     LGRX Patras Araxos Agamemnon Airport
Θερμοκρασία
26°C Θερμοκρασία
13°C Σημείο δρόσου
45% Υγρασία



Άνεμος
5 MPH
8 KM/H
2 M/S
4 KTS



360°
Β
Τρέχουσες Συνθήκες

Μερικώς Νεφελώδης Μερικώς Νεφελώδης
Πίεση 1022.01 (hPa) - 30.18 (inHg)
Ορατότητα 6 (μίλια) - 9.7 (km)
Aεροδρόμιο
Κωδικός Αεροδρομίου LGRX

Τοποθεσία: Patras Araxos Agamemnon Airport
Απόσταση: 108 (mi)

Metar:
LGRX 131020Z 36004G14KT 9999 FEW025 26/13 Q1022

ώρα: 13-04-2024 13:20 EEST